sensor_id;sensor_type;location;lat;lon;timestamp;temperature;humidity
14924;DHT22;7554;43.600;1.480;2023-08-01T00:00:48;22.10;1.00
14924;DHT22;7554;43.600;1.480;2023-08-01T00:03:38;22.00;1.00
14924;DHT22;7554;43.600;1.480;2023-08-01T00:06:12;22.00;1.00
14924;DHT22;7554;43.600;1.480;2023-08-01T00:08:45;21.90;1.00
14924;DHT22;7554;43.600;1.480;2023-08-01T00:12:18;21.90;1.00
14924;DHT22;7554;43.600;1.480;2023-08-01T00:15:25;21.80;1.00
14924;DHT22;7554;43.600;1.480;2023-08-01T00:18:50;21.70;1.00
14924;DHT22;7554;43.600;1.480;2023-08-01T00:21:06;21.70;1.00
14924;DHT22;7554;43.600;1.480;2023-08-01T00:23:47;21.60;1.00
14924;DHT22;7554;43.600;1.480;2023-08-01T00:29:31;21.60;1.00
14924;DHT22;7554;43.600;1.480;2023-08-01T00:32:33;21.50;1.00
14924;DHT22;7554;43.600;1.480;2023-08-01T00:35:42;21.50;1.00
14924;DHT22;7554;43.600;1.480;2023-08-01T00:42:35;21.30;1.00
14924;DHT22;7554;43.600;1.480;2023-08-01T00:49:14;21.20;1.00
14924;DHT22;7554;43.600;1.480;2023-08-01T00:56:05;21.10;1.00
14924;DHT22;7554;43.600;1.480;2023-08-01T00:58:41;21.00;1.00
14924;DHT22;7554;43.600;1.480;2023-08-01T01:19:37;20.80;1.00
14924;DHT22;7554;43.600;1.480;2023-08-01T01:29:21;20.70;1.00
14924;DHT22;7554;43.600;1.480;2023-08-01T01:32:31;20.70;1.00
14924;DHT22;7554;43.600;1.480;2023-08-01T01:36:04;20.70;1.00
14924;DHT22;7554;43.600;1.480;2023-08-01T01:39:56;20.60;1.00
14924;DHT22;7554;43.600;1.480;2023-08-01T01:43:23;20.50;1.00
14924;DHT22;7554;43.600;1.480;2023-08-01T01:52:35;20.50;1.00
14924;DHT22;7554;43.600;1.480;2023-08-01T01:55:36;20.60;1.00
14924;DHT22;7554;43.600;1.480;2023-08-01T01:59:04;20.80;1.00
14924;DHT22;7554;43.600;1.480;2023-08-01T02:02:10;20.80;1.00
14924;DHT22;7554;43.600;1.480;2023-08-01T02:05:30;20.70;1.00
14924;DHT22;7554;43.600;1.480;2023-08-01T02:12:30;20.80;1.00
14924;DHT22;7554;43.600;1.480;2023-08-01T02:19:24;20.60;1.00
14924;DHT22;7554;43.600;1.480;2023-08-01T02:23:19;20.70;1.00
14924;DHT22;7554;43.600;1.480;2023-08-01T02:30:13;20.50;1.00
14924;DHT22;7554;43.600;1.480;2023-08-01T02:43:39;20.70;1.00
14924;DHT22;7554;43.600;1.480;2023-08-01T02:54:21;20.90;1.00
14924;DHT22;7554;43.600;1.480;2023-08-01T03:07:37;21.00;1.00
14924;DHT22;7554;43.600;1.480;2023-08-01T03:11:29;20.90;1.00
14924;DHT22;7554;43.600;1.480;2023-08-01T03:14:19;20.70;1.00
14924;DHT22;7554;43.600;1.480;2023-08-01T03:25:19;20.80;1.00
14924;DHT22;7554;43.600;1.480;2023-08-01T03:31:58;20.90;1.00
14924;DHT22;7554;43.600;1.480;2023-08-01T03:34:53;20.90;1.00
14924;DHT22;7554;43.600;1.480;2023-08-01T03:46:42;20.90;1.00
14924;DHT22;7554;43.600;1.480;2023-08-01T03:56:11;20.90;1.00
14924;DHT22;7554;43.600;1.480;2023-08-01T03:59:33;20.90;1.00
14924;DHT22;7554;43.600;1.480;2023-08-01T04:05:44;21.00;1.00
14924;DHT22;7554;43.600;1.480;2023-08-01T04:08:59;20.90;1.00
14924;DHT22;7554;43.600;1.480;2023-08-01T04:12:19;20.90;1.00
14924;DHT22;7554;43.600;1.480;2023-08-01T04:15:43;20.90;1.00
14924;DHT22;7554;43.600;1.480;2023-08-01T04:18:31;20.90;1.00
14924;DHT22;7554;43.600;1.480;2023-08-01T04:21:48;20.90;1.00
14924;DHT22;7554;43.600;1.480;2023-08-01T04:28:25;20.80;1.00
14924;DHT22;7554;43.600;1.480;2023-08-01T04:34:53;20.70;1.00
14924;DHT22;7554;43.600;1.480;2023-08-01T04:41:02;20.70;1.00
14924;DHT22;7554;43.600;1.480;2023-08-01T04:44:08;20.70;1.00
14924;DHT22;7554;43.600;1.480;2023-08-01T04:57:16;20.70;1.00
14924;DHT22;7554;43.600;1.480;2023-08-01T05:03:51;20.60;1.00
14924;DHT22;7554;43.600;1.480;2023-08-01T05:10:46;20.50;1.00
14924;DHT22;7554;43.600;1.480;2023-08-01T05:17:27;20.40;1.00
14924;DHT22;7554;43.600;1.480;2023-08-01T05:20:45;20.40;1.00
14924;DHT22;7554;43.600;1.480;2023-08-01T05:23:45;20.40;1.00
14924;DHT22;7554;43.600;1.480;2023-08-01T05:26:49;20.60;1.00
14924;DHT22;7554;43.600;1.480;2023-08-01T05:29:17;20.70;1.00
14924;DHT22;7554;43.600;1.480;2023-08-01T05:31:44;20.70;1.00
14924;DHT22;7554;43.600;1.480;2023-08-01T05:34:32;20.80;1.00
14924;DHT22;7554;43.600;1.480;2023-08-01T05:37:12;20.80;1.00
14924;DHT22;7554;43.600;1.480;2023-08-01T05:39:53;21.10;1.00
14924;DHT22;7554;43.600;1.480;2023-08-01T05:42:22;21.70;1.00
14924;DHT22;7554;43.600;1.480;2023-08-01T05:44:52;22.20;1.00
14924;DHT22;7554;43.600;1.480;2023-08-01T05:47:23;22.70;1.00
14924;DHT22;7554;43.600;1.480;2023-08-01T05:49:50;22.70;1.00
14924;DHT22;7554;43.600;1.480;2023-08-01T05:52:21;22.90;1.00
14924;DHT22;7554;43.600;1.480;2023-08-01T05:54:49;23.10;1.00
14924;DHT22;7554;43.600;1.480;2023-08-01T05:57:16;23.60;1.00
14924;DHT22;7554;43.600;1.480;2023-08-01T05:59:45;23.90;1.00
14924;DHT22;7554;43.600;1.480;2023-08-01T06:02:12;24.30;1.00
14924;DHT22;7554;43.600;1.480;2023-08-01T06:04:47;24.50;1.00
14924;DHT22;7554;43.600;1.480;2023-08-01T06:07:29;25.60;1.00
14924;DHT22;7554;43.600;1.480;2023-08-01T06:10:01;26.50;1.00
14924;DHT22;7554;43.600;1.480;2023-08-01T06:12:40;26.10;1.00
14924;DHT22;7554;43.600;1.480;2023-08-01T06:18:26;27.50;1.00
14924;DHT22;7554;43.600;1.480;2023-08-01T06:20:54;28.30;1.00
14924;DHT22;7554;43.600;1.480;2023-08-01T06:23:24;29.00;1.00
14924;DHT22;7554;43.600;1.480;2023-08-01T06:25:51;28.80;1.00
14924;DHT22;7554;43.600;1.480;2023-08-01T06:28:19;28.80;1.00
14924;DHT22;7554;43.600;1.480;2023-08-01T06:30:48;28.20;1.00
14924;DHT22;7554;43.600;1.480;2023-08-01T06:33:15;28.70;1.00
14924;DHT22;7554;43.600;1.480;2023-08-01T06:35:42;28.60;1.00
14924;DHT22;7554;43.600;1.480;2023-08-01T06:38:09;28.80;1.00
14924;DHT22;7554;43.600;1.480;2023-08-01T06:40:40;29.60;1.00
14924;DHT22;7554;43.600;1.480;2023-08-01T06:43:14;29.80;1.00
14924;DHT22;7554;43.600;1.480;2023-08-01T06:45:51;29.60;1.00
14924;DHT22;7554;43.600;1.480;2023-08-01T06:48:34;28.40;1.00
14924;DHT22;7554;43.600;1.480;2023-08-01T06:51:11;27.40;1.00
14924;DHT22;7554;43.600;1.480;2023-08-01T06:53:44;28.10;1.00
14924;DHT22;7554;43.600;1.480;2023-08-01T06:56:12;28.10;1.00
14924;DHT22;7554;43.600;1.480;2023-08-01T06:58:41;27.10;1.00
14924;DHT22;7554;43.600;1.480;2023-08-01T07:01:27;26.80;1.00
14924;DHT22;7554;43.600;1.480;2023-08-01T07:04:00;28.10;1.00
14924;DHT22;7554;43.600;1.480;2023-08-01T07:06:28;27.90;1.00
14924;DHT22;7554;43.600;1.480;2023-08-01T07:09:02;27.20;1.00
14924;DHT22;7554;43.600;1.480;2023-08-01T07:11:32;30.50;1.00
14924;DHT22;7554;43.600;1.480;2023-08-01T07:14:06;30.00;1.00
14924;DHT22;7554;43.600;1.480;2023-08-01T07:16:40;29.40;1.00
14924;DHT22;7554;43.600;1.480;2023-08-01T07:19:11;29.40;1.00
14924;DHT22;7554;43.600;1.480;2023-08-01T07:21:47;29.50;1.00
14924;DHT22;7554;43.600;1.480;2023-08-01T07:24:18;28.70;1.00
14924;DHT22;7554;43.600;1.480;2023-08-01T07:26:53;29.00;1.00
14924;DHT22;7554;43.600;1.480;2023-08-01T07:29:25;30.50;1.00
14924;DHT22;7554;43.600;1.480;2023-08-01T07:31:56;28.90;1.00
14924;DHT22;7554;43.600;1.480;2023-08-01T07:34:23;27.70;1.00
14924;DHT22;7554;43.600;1.480;2023-08-01T07:36:51;27.00;1.00
14924;DHT22;7554;43.600;1.480;2023-08-01T07:39:18;26.40;1.00
14924;DHT22;7554;43.600;1.480;2023-08-01T07:41:46;25.80;1.00
14924;DHT22;7554;43.600;1.480;2023-08-01T07:44:20;25.40;1.00
14924;DHT22;7554;43.600;1.480;2023-08-01T07:46:47;25.20;1.00
14924;DHT22;7554;43.600;1.480;2023-08-01T07:49:16;25.20;1.00
14924;DHT22;7554;43.600;1.480;2023-08-01T07:51:44;25.20;1.00
14924;DHT22;7554;43.600;1.480;2023-08-01T07:54:11;25.40;1.00
14924;DHT22;7554;43.600;1.480;2023-08-01T07:56:40;25.40;1.00
14924;DHT22;7554;43.600;1.480;2023-08-01T07:59:09;26.00;1.00
14924;DHT22;7554;43.600;1.480;2023-08-01T08:01:37;26.10;1.00
14924;DHT22;7554;43.600;1.480;2023-08-01T08:04:08;26.10;1.00
14924;DHT22;7554;43.600;1.480;2023-08-01T08:06:37;26.40;1.00
14924;DHT22;7554;43.600;1.480;2023-08-01T08:09:06;26.10;1.00
14924;DHT22;7554;43.600;1.480;2023-08-01T08:11:33;26.10;1.00
14924;DHT22;7554;43.600;1.480;2023-08-01T08:14:01;26.10;1.00
14924;DHT22;7554;43.600;1.480;2023-08-01T08:16:31;25.90;1.00
14924;DHT22;7554;43.600;1.480;2023-08-01T08:18:58;25.60;1.00
14924;DHT22;7554;43.600;1.480;2023-08-01T08:21:25;25.50;1.00
14924;DHT22;7554;43.600;1.480;2023-08-01T08:23:55;25.30;1.00
14924;DHT22;7554;43.600;1.480;2023-08-01T08:26:23;25.20;1.00
14924;DHT22;7554;43.600;1.480;2023-08-01T08:28:51;25.40;1.00
14924;DHT22;7554;43.600;1.480;2023-08-01T08:31:18;25.40;1.00
14924;DHT22;7554;43.600;1.480;2023-08-01T08:33:46;25.20;1.00
14924;DHT22;7554;43.600;1.480;2023-08-01T08:36:13;24.90;1.00
14924;DHT22;7554;43.600;1.480;2023-08-01T08:38:41;24.70;1.00
14924;DHT22;7554;43.600;1.480;2023-08-01T08:41:14;24.70;1.00
14924;DHT22;7554;43.600;1.480;2023-08-01T08:43:44;24.70;1.00
14924;DHT22;7554;43.600;1.480;2023-08-01T08:46:15;24.80;1.00
14924;DHT22;7554;43.600;1.480;2023-08-01T08:48:44;24.90;1.00
14924;DHT22;7554;43.600;1.480;2023-08-01T08:51:13;24.70;1.00
14924;DHT22;7554;43.600;1.480;2023-08-01T08:53:41;24.50;1.00
14924;DHT22;7554;43.600;1.480;2023-08-01T08:56:09;24.50;1.00
14924;DHT22;7554;43.600;1.480;2023-08-01T08:58:41;24.70;1.00
14924;DHT22;7554;43.600;1.480;2023-08-01T09:01:09;24.90;1.00
14924;DHT22;7554;43.600;1.480;2023-08-01T09:03:37;24.90;1.00
14924;DHT22;7554;43.600;1.480;2023-08-01T09:06:08;25.00;1.00
14924;DHT22;7554;43.600;1.480;2023-08-01T09:08:37;25.30;1.00
14924;DHT22;7554;43.600;1.480;2023-08-01T09:11:06;25.20;1.00
14924;DHT22;7554;43.600;1.480;2023-08-01T09:13:33;25.50;1.00
14924;DHT22;7554;43.600;1.480;2023-08-01T09:16:06;25.70;1.00
14924;DHT22;7554;43.600;1.480;2023-08-01T09:18:34;25.80;1.00
14924;DHT22;7554;43.600;1.480;2023-08-01T09:21:02;25.60;1.00
14924;DHT22;7554;43.600;1.480;2023-08-01T09:23:30;25.80;1.00
14924;DHT22;7554;43.600;1.480;2023-08-01T09:25:57;25.50;1.00
14924;DHT22;7554;43.600;1.480;2023-08-01T09:28:25;25.40;1.00
14924;DHT22;7554;43.600;1.480;2023-08-01T09:30:54;25.50;1.00
14924;DHT22;7554;43.600;1.480;2023-08-01T09:33:24;25.40;1.00
14924;DHT22;7554;43.600;1.480;2023-08-01T09:35:52;25.20;1.00
14924;DHT22;7554;43.600;1.480;2023-08-01T09:38:20;25.30;1.00
14924;DHT22;7554;43.600;1.480;2023-08-01T09:40:47;25.20;1.00
14924;DHT22;7554;43.600;1.480;2023-08-01T09:43:15;25.20;1.00
14924;DHT22;7554;43.600;1.480;2023-08-01T09:45:50;25.10;1.00
14924;DHT22;7554;43.600;1.480;2023-08-01T09:48:27;25.10;1.00
14924;DHT22;7554;43.600;1.480;2023-08-01T09:51:05;25.20;1.00
14924;DHT22;7554;43.600;1.480;2023-08-01T09:53:33;25.30;1.00
14924;DHT22;7554;43.600;1.480;2023-08-01T09:56:01;25.30;1.00
14924;DHT22;7554;43.600;1.480;2023-08-01T09:58:32;25.40;1.00
14924;DHT22;7554;43.600;1.480;2023-08-01T10:01:00;25.70;1.00
14924;DHT22;7554;43.600;1.480;2023-08-01T10:03:29;26.30;1.00
14924;DHT22;7554;43.600;1.480;2023-08-01T10:05:58;26.60;1.00
14924;DHT22;7554;43.600;1.480;2023-08-01T10:08:26;26.90;1.00
14924;DHT22;7554;43.600;1.480;2023-08-01T10:10:57;27.30;1.00
14924;DHT22;7554;43.600;1.480;2023-08-01T10:13:25;27.30;1.00
14924;DHT22;7554;43.600;1.480;2023-08-01T10:15:54;27.20;1.00
14924;DHT22;7554;43.600;1.480;2023-08-01T10:18:22;27.00;1.00
14924;DHT22;7554;43.600;1.480;2023-08-01T10:20:53;26.80;1.00
14924;DHT22;7554;43.600;1.480;2023-08-01T10:23:20;26.90;1.00
14924;DHT22;7554;43.600;1.480;2023-08-01T10:25:48;26.70;1.00
14924;DHT22;7554;43.600;1.480;2023-08-01T10:28:15;26.70;1.00
14924;DHT22;7554;43.600;1.480;2023-08-01T10:30:43;26.90;1.00
14924;DHT22;7554;43.600;1.480;2023-08-01T10:33:11;26.90;1.00
14924;DHT22;7554;43.600;1.480;2023-08-01T10:35:40;26.90;1.00
14924;DHT22;7554;43.600;1.480;2023-08-01T10:38:11;27.00;1.00
14924;DHT22;7554;43.600;1.480;2023-08-01T10:40:40;26.80;1.00
14924;DHT22;7554;43.600;1.480;2023-08-01T10:43:19;26.80;1.00
14924;DHT22;7554;43.600;1.480;2023-08-01T10:45:47;26.90;1.00
14924;DHT22;7554;43.600;1.480;2023-08-01T10:48:14;26.90;1.00
14924;DHT22;7554;43.600;1.480;2023-08-01T10:50:42;27.00;1.00
14924;DHT22;7554;43.600;1.480;2023-08-01T10:53:13;26.60;1.00
14924;DHT22;7554;43.600;1.480;2023-08-01T10:55:42;26.50;1.00
14924;DHT22;7554;43.600;1.480;2023-08-01T10:58:09;26.50;1.00
14924;DHT22;7554;43.600;1.480;2023-08-01T11:00:37;26.30;1.00
14924;DHT22;7554;43.600;1.480;2023-08-01T11:03:05;26.30;1.00
14924;DHT22;7554;43.600;1.480;2023-08-01T11:05:32;26.40;1.00
14924;DHT22;7554;43.600;1.480;2023-08-01T11:08:01;26.60;1.00
14924;DHT22;7554;43.600;1.480;2023-08-01T11:10:30;26.80;1.00
14924;DHT22;7554;43.600;1.480;2023-08-01T11:13:11;26.70;1.00
14924;DHT22;7554;43.600;1.480;2023-08-01T11:15:38;27.00;1.00
14924;DHT22;7554;43.600;1.480;2023-08-01T11:18:06;27.00;1.00
14924;DHT22;7554;43.600;1.480;2023-08-01T11:20:40;26.90;1.00
14924;DHT22;7554;43.600;1.480;2023-08-01T11:23:07;26.60;1.00
14924;DHT22;7554;43.600;1.480;2023-08-01T11:25:43;27.00;1.00
14924;DHT22;7554;43.600;1.480;2023-08-01T11:28:17;27.50;1.00
14924;DHT22;7554;43.600;1.480;2023-08-01T11:30:46;27.90;1.00
14924;DHT22;7554;43.600;1.480;2023-08-01T11:33:14;27.60;1.00
14924;DHT22;7554;43.600;1.480;2023-08-01T11:35:55;27.50;1.00
14924;DHT22;7554;43.600;1.480;2023-08-01T11:38:26;27.40;1.00
14924;DHT22;7554;43.600;1.480;2023-08-01T11:40:57;27.70;1.00
14924;DHT22;7554;43.600;1.480;2023-08-01T11:43:38;27.70;1.00
14924;DHT22;7554;43.600;1.480;2023-08-01T11:46:12;27.30;1.00
14924;DHT22;7554;43.600;1.480;2023-08-01T11:48:49;27.30;1.00
14924;DHT22;7554;43.600;1.480;2023-08-01T11:51:22;27.60;1.00
14924;DHT22;7554;43.600;1.480;2023-08-01T11:54:15;27.60;1.00
14924;DHT22;7554;43.600;1.480;2023-08-01T11:57:08;27.70;1.00
14924;DHT22;7554;43.600;1.480;2023-08-01T11:59:56;27.70;1.00
14924;DHT22;7554;43.600;1.480;2023-08-01T12:03:17;27.20;1.00
14924;DHT22;7554;43.600;1.480;2023-08-01T12:06:32;26.90;1.00
14924;DHT22;7554;43.600;1.480;2023-08-01T12:09:19;26.70;1.00
14924;DHT22;7554;43.600;1.480;2023-08-01T12:12:13;26.20;1.00
14924;DHT22;7554;43.600;1.480;2023-08-01T12:15:11;23.60;1.00
14924;DHT22;7554;43.600;1.480;2023-08-01T12:17:47;23.30;1.00
14924;DHT22;7554;43.600;1.480;2023-08-01T12:20:26;23.70;2.60
14924;DHT22;7554;43.600;1.480;2023-08-01T12:22:59;24.60;35.90
14924;DHT22;7554;43.600;1.480;2023-08-01T12:25:53;25.30;1.00
14924;DHT22;7554;43.600;1.480;2023-08-01T12:28:27;25.80;1.00
14924;DHT22;7554;43.600;1.480;2023-08-01T12:31:17;26.20;1.00
14924;DHT22;7554;43.600;1.480;2023-08-01T12:33:52;26.40;1.00
14924;DHT22;7554;43.600;1.480;2023-08-01T12:36:35;27.10;1.00
14924;DHT22;7554;43.600;1.480;2023-08-01T12:39:16;27.20;1.00
14924;DHT22;7554;43.600;1.480;2023-08-01T12:42:04;27.00;1.00
14924;DHT22;7554;43.600;1.480;2023-08-01T12:44:44;27.40;1.00
14924;DHT22;7554;43.600;1.480;2023-08-01T12:47:27;28.10;1.00
14924;DHT22;7554;43.600;1.480;2023-08-01T12:50:21;28.30;1.00
14924;DHT22;7554;43.600;1.480;2023-08-01T12:53:02;28.50;1.00
14924;DHT22;7554;43.600;1.480;2023-08-01T12:55:54;28.60;1.00
14924;DHT22;7554;43.600;1.480;2023-08-01T12:59:43;28.60;1.00
14924;DHT22;7554;43.600;1.480;2023-08-01T13:16:28;27.60;1.00
14924;DHT22;7554;43.600;1.480;2023-08-01T13:19:31;27.80;1.00
14924;DHT22;7554;43.600;1.480;2023-08-01T13:22:18;27.90;1.00
14924;DHT22;7554;43.600;1.480;2023-08-01T13:46:31;28.30;1.00
14924;DHT22;7554;43.600;1.480;2023-08-01T13:49:48;28.00;1.00
14924;DHT22;7554;43.600;1.480;2023-08-01T13:59:27;27.30;1.00
14924;DHT22;7554;43.600;1.480;2023-08-01T14:03:01;27.20;1.00
14924;DHT22;7554;43.600;1.480;2023-08-01T14:06:12;27.30;1.00
14924;DHT22;7554;43.600;1.480;2023-08-01T14:09:03;27.40;1.00
14924;DHT22;7554;43.600;1.480;2023-08-01T14:15:12;27.90;1.00
14924;DHT22;7554;43.600;1.480;2023-08-01T14:18:05;28.10;1.00
14924;DHT22;7554;43.600;1.480;2023-08-01T14:21:19;27.70;1.00
14924;DHT22;7554;43.600;1.480;2023-08-01T14:24:21;27.50;1.00
14924;DHT22;7554;43.600;1.480;2023-08-01T14:33:52;27.30;1.00
14924;DHT22;7554;43.600;1.480;2023-08-01T14:37:01;27.20;1.00
14924;DHT22;7554;43.600;1.480;2023-08-01T14:39:43;27.10;1.00
14924;DHT22;7554;43.600;1.480;2023-08-01T14:42:40;27.20;1.00
14924;DHT22;7554;43.600;1.480;2023-08-01T14:45:44;27.20;1.00
14924;DHT22;7554;43.600;1.480;2023-08-01T14:48:25;27.50;1.00
14924;DHT22;7554;43.600;1.480;2023-08-01T14:51:04;27.40;1.00
14924;DHT22;7554;43.600;1.480;2023-08-01T14:53:39;27.30;1.00
14924;DHT22;7554;43.600;1.480;2023-08-01T14:56:18;27.20;1.00
14924;DHT22;7554;43.600;1.480;2023-08-01T14:59:01;27.20;1.00
14924;DHT22;7554;43.600;1.480;2023-08-01T15:01:38;27.20;1.00
14924;DHT22;7554;43.600;1.480;2023-08-01T15:04:21;27.30;1.00
14924;DHT22;7554;43.600;1.480;2023-08-01T15:06:56;27.30;1.00
14924;DHT22;7554;43.600;1.480;2023-08-01T15:09:47;27.20;1.00
14924;DHT22;7554;43.600;1.480;2023-08-01T15:12:24;27.30;1.00
14924;DHT22;7554;43.600;1.480;2023-08-01T15:15:03;27.30;1.00
14924;DHT22;7554;43.600;1.480;2023-08-01T15:17:33;27.30;1.00
14924;DHT22;7554;43.600;1.480;2023-08-01T15:20:02;27.30;1.00
14924;DHT22;7554;43.600;1.480;2023-08-01T15:22:56;27.40;1.00
14924;DHT22;7554;43.600;1.480;2023-08-01T15:25:55;27.70;1.00
14924;DHT22;7554;43.600;1.480;2023-08-01T16:25:09;28.20;1.00
14924;DHT22;7554;43.600;1.480;2023-08-01T16:28:27;28.20;1.00
14924;DHT22;7554;43.600;1.480;2023-08-01T16:30:56;28.10;1.00
14924;DHT22;7554;43.600;1.480;2023-08-01T16:33:23;28.00;1.00
14924;DHT22;7554;43.600;1.480;2023-08-01T16:35:51;28.00;1.00
14924;DHT22;7554;43.600;1.480;2023-08-01T16:38:19;27.90;1.00
14924;DHT22;7554;43.600;1.480;2023-08-01T16:40:47;27.70;1.00
14924;DHT22;7554;43.600;1.480;2023-08-01T16:43:14;27.80;1.00
14924;DHT22;7554;43.600;1.480;2023-08-01T16:45:41;27.70;1.00
14924;DHT22;7554;43.600;1.480;2023-08-01T16:48:09;27.60;1.00
14924;DHT22;7554;43.600;1.480;2023-08-01T16:50:36;27.50;1.00
14924;DHT22;7554;43.600;1.480;2023-08-01T16:53:03;27.50;1.00
14924;DHT22;7554;43.600;1.480;2023-08-01T16:55:33;27.40;1.00
14924;DHT22;7554;43.600;1.480;2023-08-01T16:58:00;27.40;1.00
14924;DHT22;7554;43.600;1.480;2023-08-01T17:00:28;27.40;1.00
14924;DHT22;7554;43.600;1.480;2023-08-01T17:02:55;27.40;1.00
14924;DHT22;7554;43.600;1.480;2023-08-01T17:05:22;27.50;1.00
14924;DHT22;7554;43.600;1.480;2023-08-01T17:07:49;27.60;1.00
14924;DHT22;7554;43.600;1.480;2023-08-01T17:10:17;27.60;1.00
14924;DHT22;7554;43.600;1.480;2023-08-01T17:12:46;27.50;1.00
14924;DHT22;7554;43.600;1.480;2023-08-01T17:15:13;27.40;1.00
14924;DHT22;7554;43.600;1.480;2023-08-01T17:17:40;27.20;1.00
14924;DHT22;7554;43.600;1.480;2023-08-01T17:20:08;27.10;1.00
14924;DHT22;7554;43.600;1.480;2023-08-01T17:22:35;27.20;1.00
14924;DHT22;7554;43.600;1.480;2023-08-01T17:25:04;27.20;1.00
14924;DHT22;7554;43.600;1.480;2023-08-01T17:27:31;27.30;1.00
14924;DHT22;7554;43.600;1.480;2023-08-01T17:30:01;27.20;1.00
14924;DHT22;7554;43.600;1.480;2023-08-01T17:32:28;26.90;1.00
14924;DHT22;7554;43.600;1.480;2023-08-01T17:34:56;26.80;1.00
14924;DHT22;7554;43.600;1.480;2023-08-01T17:37:23;26.80;1.00
14924;DHT22;7554;43.600;1.480;2023-08-01T17:39:50;26.80;1.00
14924;DHT22;7554;43.600;1.480;2023-08-01T17:42:18;26.70;1.00
14924;DHT22;7554;43.600;1.480;2023-08-01T17:44:45;26.60;1.00
14924;DHT22;7554;43.600;1.480;2023-08-01T17:47:14;26.60;1.00
14924;DHT22;7554;43.600;1.480;2023-08-01T17:49:41;26.60;1.00
14924;DHT22;7554;43.600;1.480;2023-08-01T17:52:09;26.50;1.00
14924;DHT22;7554;43.600;1.480;2023-08-01T17:54:36;26.40;1.00
14924;DHT22;7554;43.600;1.480;2023-08-01T17:57:04;26.40;1.00
14924;DHT22;7554;43.600;1.480;2023-08-01T17:59:32;26.40;1.00
14924;DHT22;7554;43.600;1.480;2023-08-01T18:02:01;26.30;1.00
14924;DHT22;7554;43.600;1.480;2023-08-01T18:04:32;26.30;1.00
14924;DHT22;7554;43.600;1.480;2023-08-01T18:07:00;26.20;1.00
14924;DHT22;7554;43.600;1.480;2023-08-01T18:09:27;26.20;1.00
14924;DHT22;7554;43.600;1.480;2023-08-01T18:11:55;26.20;1.00
14924;DHT22;7554;43.600;1.480;2023-08-01T18:14:22;26.20;1.00
14924;DHT22;7554;43.600;1.480;2023-08-01T18:16:49;26.10;1.00
14924;DHT22;7554;43.600;1.480;2023-08-01T18:19:16;26.00;1.00
14924;DHT22;7554;43.600;1.480;2023-08-01T18:21:45;26.00;1.00
14924;DHT22;7554;43.600;1.480;2023-08-01T18:24:13;25.90;1.00
14924;DHT22;7554;43.600;1.480;2023-08-01T18:26:40;25.90;1.00
14924;DHT22;7554;43.600;1.480;2023-08-01T18:29:07;25.80;1.00
14924;DHT22;7554;43.600;1.480;2023-08-01T18:31:35;25.80;1.00
14924;DHT22;7554;43.600;1.480;2023-08-01T18:34:02;25.70;1.00
14924;DHT22;7554;43.600;1.480;2023-08-01T18:36:30;25.60;1.00
14924;DHT22;7554;43.600;1.480;2023-08-01T18:38:59;25.60;1.00
14924;DHT22;7554;43.600;1.480;2023-08-01T18:41:26;25.60;1.00
14924;DHT22;7554;43.600;1.480;2023-08-01T18:43:54;25.50;1.00
14924;DHT22;7554;43.600;1.480;2023-08-01T18:46:21;25.50;1.00
14924;DHT22;7554;43.600;1.480;2023-08-01T18:48:49;25.40;1.00
14924;DHT22;7554;43.600;1.480;2023-08-01T18:51:18;25.40;1.00
14924;DHT22;7554;43.600;1.480;2023-08-01T18:53:45;25.40;1.00
14924;DHT22;7554;43.600;1.480;2023-08-01T18:56:16;25.30;1.00
14924;DHT22;7554;43.600;1.480;2023-08-01T18:58:45;25.20;1.00
14924;DHT22;7554;43.600;1.480;2023-08-01T19:01:14;25.20;1.00
14924;DHT22;7554;43.600;1.480;2023-08-01T19:03:41;25.10;1.00
14924;DHT22;7554;43.600;1.480;2023-08-01T19:06:09;25.10;1.00
14924;DHT22;7554;43.600;1.480;2023-08-01T19:08:36;25.00;1.00
14924;DHT22;7554;43.600;1.480;2023-08-01T19:11:04;24.90;1.00
14924;DHT22;7554;43.600;1.480;2023-08-01T19:13:32;24.90;1.00
14924;DHT22;7554;43.600;1.480;2023-08-01T19:16:00;24.90;1.00
14924;DHT22;7554;43.600;1.480;2023-08-01T19:18:27;24.80;1.00
14924;DHT22;7554;43.600;1.480;2023-08-01T19:20:57;24.70;1.00
14924;DHT22;7554;43.600;1.480;2023-08-01T19:23:26;24.70;1.00
14924;DHT22;7554;43.600;1.480;2023-08-01T19:25:53;24.70;1.00
14924;DHT22;7554;43.600;1.480;2023-08-01T19:28:20;24.60;1.00
14924;DHT22;7554;43.600;1.480;2023-08-01T19:30:49;24.50;1.00
14924;DHT22;7554;43.600;1.480;2023-08-01T19:33:17;24.50;1.00
14924;DHT22;7554;43.600;1.480;2023-08-01T19:35:45;24.50;1.00
14924;DHT22;7554;43.600;1.480;2023-08-01T19:38:20;24.40;1.00
14924;DHT22;7554;43.600;1.480;2023-08-01T19:40:51;24.30;1.00
14924;DHT22;7554;43.600;1.480;2023-08-01T19:43:18;24.30;1.00
14924;DHT22;7554;43.600;1.480;2023-08-01T19:45:45;24.30;1.00
14924;DHT22;7554;43.600;1.480;2023-08-01T19:48:14;24.20;1.00
14924;DHT22;7554;43.600;1.480;2023-08-01T19:50:42;24.20;1.00
14924;DHT22;7554;43.600;1.480;2023-08-01T19:53:09;24.20;1.00
14924;DHT22;7554;43.600;1.480;2023-08-01T19:55:36;24.20;1.00
14924;DHT22;7554;43.600;1.480;2023-08-01T19:58:04;24.10;1.00
14924;DHT22;7554;43.600;1.480;2023-08-01T20:00:35;24.10;1.00
14924;DHT22;7554;43.600;1.480;2023-08-01T20:03:02;24.10;1.00
14924;DHT22;7554;43.600;1.480;2023-08-01T20:05:34;24.00;1.00
14924;DHT22;7554;43.600;1.480;2023-08-01T20:08:15;24.00;1.00
14924;DHT22;7554;43.600;1.480;2023-08-01T20:10:46;24.00;1.00
14924;DHT22;7554;43.600;1.480;2023-08-01T20:13:14;24.00;1.00
14924;DHT22;7554;43.600;1.480;2023-08-01T20:16:09;23.90;1.00
14924;DHT22;7554;43.600;1.480;2023-08-01T20:18:48;23.90;1.00
14924;DHT22;7554;43.600;1.480;2023-08-01T20:21:42;23.90;1.00
14924;DHT22;7554;43.600;1.480;2023-08-01T20:24:09;23.80;1.00
14924;DHT22;7554;43.600;1.480;2023-08-01T20:26:36;23.80;1.00
14924;DHT22;7554;43.600;1.480;2023-08-01T20:29:04;23.80;1.00
14924;DHT22;7554;43.600;1.480;2023-08-01T20:31:31;23.80;1.00
14924;DHT22;7554;43.600;1.480;2023-08-01T20:33:59;23.80;1.00
14924;DHT22;7554;43.600;1.480;2023-08-01T20:36:26;23.70;1.00
14924;DHT22;7554;43.600;1.480;2023-08-01T20:38:55;23.70;1.00
14924;DHT22;7554;43.600;1.480;2023-08-01T20:41:22;23.70;1.00
14924;DHT22;7554;43.600;1.480;2023-08-01T20:43:50;23.60;1.00
14924;DHT22;7554;43.600;1.480;2023-08-01T20:46:17;23.60;1.00
14924;DHT22;7554;43.600;1.480;2023-08-01T20:48:44;23.60;1.00
14924;DHT22;7554;43.600;1.480;2023-08-01T20:51:12;23.60;1.00
14924;DHT22;7554;43.600;1.480;2023-08-01T20:53:39;23.60;1.00
14924;DHT22;7554;43.600;1.480;2023-08-01T20:56:10;23.50;1.00
14924;DHT22;7554;43.600;1.480;2023-08-01T20:58:38;23.50;1.00
14924;DHT22;7554;43.600;1.480;2023-08-01T21:01:05;23.50;1.00
14924;DHT22;7554;43.600;1.480;2023-08-01T21:03:32;23.40;1.00
14924;DHT22;7554;43.600;1.480;2023-08-01T21:06:00;23.40;1.00
14924;DHT22;7554;43.600;1.480;2023-08-01T21:08:27;23.40;1.00
14924;DHT22;7554;43.600;1.480;2023-08-01T21:10:54;23.40;1.00
14924;DHT22;7554;43.600;1.480;2023-08-01T21:13:23;23.30;1.00
14924;DHT22;7554;43.600;1.480;2023-08-01T21:15:50;23.30;1.00
14924;DHT22;7554;43.600;1.480;2023-08-01T21:18:18;23.30;1.00
14924;DHT22;7554;43.600;1.480;2023-08-01T21:20:45;23.30;1.00
14924;DHT22;7554;43.600;1.480;2023-08-01T21:23:12;23.20;1.00
14924;DHT22;7554;43.600;1.480;2023-08-01T21:25:40;23.20;1.00
14924;DHT22;7554;43.600;1.480;2023-08-01T21:28:07;23.20;1.00
14924;DHT22;7554;43.600;1.480;2023-08-01T21:30:36;23.20;1.00